Date,TemperatureHighF,TemperatureAvgF,TemperatureLowF,DewpointHighF,DewpointAvgF,DewpointLowF,HumidityHigh,HumidityAvg,HumidityLow,PressureMaxIn,PressureMinIn,WindSpeedMaxMPH,WindSpeedAvgMPH,GustSpeedMaxMPH,PrecipitationSumIn
2013-10-1,72.4,60.6,50.0,54.0,47.2,40.0,83,63,45,29.98,29.82,12,3,0,0.00
2013-10-2,74.5,64.5,58.0,60.0,53.6,46.0,83,68,52,29.86,29.72,15,5,0,0.00
2013-10-3,69.2,61.2,55.1,49.0,44.6,40.0,65,55,43,30.05,29.86,13,4,0,0.00
2013-10-4,67.2,58.7,52.8,49.0,43.8,36.0,72,58,44,30.09,30.02,12,3,0,0.01
2013-10-5,60.7,53.0,47.5,47.0,41.6,37.0,85,66,50,30.16,30.08,7,3,0,0.00
2013-10-6,57.0,47.5,39.8,43.0,37.4,33.0,96,69,49,30.29,30.16,21,6,0,0.24
2013-10-7,64.4,55.4,44.0,64.0,55.0,43.0,99,98,96,30.22,29.80,21,7,0,0.58
2013-10-8,61.6,51.6,44.2,61.0,43.8,37.0,99,76,53,30.38,29.80,15,6,0,0.00
2013-10-9,60.6,50.1,42.9,43.0,39.2,37.0,79,67,49,30.49,30.36,11,3,0,0.00
2013-10-10,66.8,55.1,48.2,50.0,41.5,34.0,80,61,40,30.36,30.18,13,4,0,0.00
2013-10-11,69.5,60.2,52.0,53.0,47.9,40.0,78,65,48,30.20,30.13,11,5,0,0.00
2013-10-12,57.5,51.3,48.6,51.0,47.9,46.0,97,88,78,30.41,30.20,11,3,0,0.00
2013-10-13,57.5,49.9,45.5,48.0,44.8,41.0,94,83,67,30.47,30.38,7,2,0,0.00
2013-10-14,61.2,50.7,44.1,49.0,45.6,43.0,95,83,63,30.38,30.25,11,5,0,0.01
2013-10-15,61.8,54.4,48.6,51.0,49.6,47.0,94,84,67,30.29,30.21,7,3,0,0.00
2013-10-16,55.8,52.5,50.4,53.0,50.7,49.0,97,93,81,30.22,29.90,10,2,0,0.00
2013-10-17,64.5,55.8,50.8,56.0,52.0,47.0,98,88,68,29.89,29.73,12,3,0,0.00
2013-10-18,59.3,53.2,48.9,55.0,48.2,42.0,98,84,64,29.80,29.57,17,5,0,0.11
2013-10-19,60.1,51.2,45.6,47.0,41.6,37.0,90,71,50,29.91,29.76,11,5,0,0.00
2013-10-20,56.8,50.5,44.3,49.0,39.6,29.0,97,70,37,29.91,29.65,15,6,0,0.01
2013-10-21,56.8,47.8,40.4,45.0,36.4,31.0,87,66,48,30.05,29.91,14,6,0,0.00
2013-10-22,58.8,50.3,41.8,50.0,46.5,39.0,96,87,67,29.99,29.68,14,6,0,0.00
2013-10-23,49.6,43.4,37.8,39.0,33.3,30.0,89,69,49,29.75,29.58,10,2,0,0.00
2013-10-24,44.9,39.5,34.3,34.0,28.8,24.0,83,67,46,29.77,29.58,21,6,0,0.00
2013-10-25,47.2,38.5,34.1,31.0,28.9,25.0,82,69,52,30.06,29.78,17,7,0,0.00
2013-10-26,45.1,38.5,31.4,36.0,29.1,23.0,90,70,54,30.09,29.86,14,6,0,0.01
2013-10-27,50.0,41.9,35.9,39.0,34.4,28.0,94,76,59,29.96,29.77,13,6,0,0.02
2013-10-28,48.6,38.4,30.2,35.0,28.8,23.0,77,69,57,30.33,29.96,17,6,0,0.00
2013-10-29,42.4,34.0,26.5,27.0,21.3,15.0,81,62,38,30.45,30.33,11,4,0,0.00
2013-10-30,42.2,36.3,31.4,26.0,21.2,15.0,72,55,41,30.35,30.17,10,4,0,0.00
2013-10-31,55.9,43.7,35.3,55.0,38.7,26.0,98,83,68,30.25,29.78,18,5,0,0.28